Time;durP1;ratioP1;P1;durP2;ratioP2;P2;SDS_P1;SDS_P2;PMS_P1;PMS_P2;Temp;Humidity;BMP_temperature;BMP_pressure;BME280_temperature;BME280_humidity;BME280_pressure;Samples;Min_cycle;Max_cycle;Signal;HPM_P1;HPM_P2
2022/03/16 00:00:10;;;;;;;61.70;25.37;;;;;;;2.23;50.93;100126.20;1683651;85;21032;-81
2022/03/16 00:02:41;;;;;;;72.25;29.32;;;;;;;2.18;51.36;100120.55;1685692;85;20996;-83
2022/03/16 00:05:09;;;;;;;60.03;25.65;;;;;;;2.16;49.07;100127.34;1664078;85;21018;-82
2022/03/16 00:07:36;;;;;;;86.40;31.23;;;;;;;2.12;50.68;100113.98;1661142;85;21002;-81
2022/03/16 00:10:05;;;;;;;67.45;28.80;;;;;;;2.14;50.85;100112.74;1675461;85;21039;-83
2022/03/16 00:12:31;;;;;;;66.87;30.35;;;;;;;2.10;51.23;100107.09;1671834;83;21028;-82
2022/03/16 00:14:57;;;;;;;72.53;29.65;;;;;;;2.06;51.77;100098.44;1676723;84;21001;-83
2022/03/16 00:17:24;;;;;;;78.62;31.40;;;;;;;2.03;51.18;100084.27;1668729;84;21033;-82
2022/03/16 00:19:50;;;;;;;72.20;31.45;;;;;;;2.05;50.89;100076.59;1671973;84;20996;-83
2022/03/16 00:22:17;;;;;;;77.32;30.45;;;;;;;2.05;50.55;100074.91;1686920;84;21019;-82
2022/03/16 00:24:44;;;;;;;72.75;33.75;;;;;;;2.02;51.58;100071.40;1664651;85;21001;-83
2022/03/16 00:27:11;;;;;;;70.62;29.20;;;;;;;1.96;52.22;100061.42;1683208;83;21112;-84
2022/03/16 00:29:37;;;;;;;78.22;32.50;;;;;;;1.94;52.00;100059.66;1665751;86;21044;-83
2022/03/16 00:32:05;;;;;;;65.57;27.07;;;;;;;1.96;50.11;100063.13;1699330;82;21042;-83
2022/03/16 00:34:32;;;;;;;76.55;30.95;;;;;;;1.93;51.43;100056.23;1725534;83;20946;-84
2022/03/16 00:36:59;;;;;;;72.90;29.92;;;;;;;1.95;51.99;100054.58;1744597;81;21038;-81
2022/03/16 00:39:26;;;;;;;70.87;31.95;;;;;;;1.96;51.53;100042.61;1712740;82;20986;-80
2022/03/16 00:41:53;;;;;;;63.90;29.75;;;;;;;1.99;51.48;100029.88;1716966;83;21158;-80
2022/03/16 00:44:19;;;;;;;62.40;25.40;;;;;;;2.03;50.82;100025.28;1721081;82;20986;-81
2022/03/16 00:46:46;;;;;;;66.40;29.42;;;;;;;2.06;51.36;100030.89;1725187;82;21007;-79
2022/03/16 00:49:13;;;;;;;70.45;30.45;;;;;;;2.08;50.86;100019.82;1714765;82;21579;-81
2022/03/16 00:51:39;;;;;;;68.72;30.32;;;;;;;2.11;51.18;100016.06;1696357;82;20947;-80
2022/03/16 00:54:06;;;;;;;76.12;29.82;;;;;;;2.12;50.15;100010.08;1742892;82;21024;-80
2022/03/16 00:56:33;;;;;;;61.95;24.40;;;;;;;2.13;50.81;99991.70;1753739;79;20979;-83
2022/03/16 00:58:59;;;;;;;71.50;29.18;;;;;;;2.11;50.91;99985.28;1756033;79;21012;-83
2022/03/16 01:01:28;;;;;;;60.33;25.77;;;;;;;2.13;51.18;99991.31;1753477;79;20952;-82
2022/03/16 01:03:56;;;;;;;72.08;28.40;;;;;;;2.14;51.19;99983.19;1738606;81;21327;-83
2022/03/16 01:06:23;;;;;;;60.00;27.15;;;;;;;2.15;51.48;99975.53;1753671;80;20982;-83
2022/03/16 01:08:51;;;;;;;80.35;30.62;;;;;;;2.16;51.58;99955.87;1754067;79;20975;-82
2022/03/16 01:11:17;;;;;;;61.95;26.65;;;;;;;2.16;52.01;99963.14;1752253;81;21015;-82
2022/03/16 01:13:45;;;;;;;64.42;27.62;;;;;;;2.15;50.42;99960.57;1754152;81;21287;-84
2022/03/16 01:16:12;;;;;;;65.62;24.98;;;;;;;2.13;50.55;99940.00;1754734;80;20995;-83
2022/03/16 01:18:39;;;;;;;67.25;25.40;;;;;;;2.13;51.21;99944.24;1747116;80;21031;-84
2022/03/16 01:21:07;;;;;;;55.17;22.13;;;;;;;2.12;52.97;99951.51;1738077;80;21015;-84
2022/03/16 01:23:36;;;;;;;64.07;24.18;;;;;;;2.11;51.87;99949.76;1751182;80;21005;-83
2022/03/16 01:26:04;;;;;;;43.70;19.98;;;;;;;2.06;52.78;99939.41;1749585;80;20941;-83
2022/03/16 01:28:32;;;;;;;60.67;24.63;;;;;;;2.05;53.16;99947.95;1748794;81;21002;-83
2022/03/16 01:31:00;;;;;;;56.20;22.30;;;;;;;2.05;52.58;99944.09;1753858;80;21014;-83
2022/03/16 01:33:27;;;;;;;58.98;24.05;;;;;;;2.03;53.84;99944.48;1748259;80;22107;-83
2022/03/16 01:35:53;;;;;;;72.37;24.50;;;;;;;2.02;54.29;99933.75;1731910;80;21102;-83
2022/03/16 01:38:20;;;;;;;58.83;23.25;;;;;;;2.04;54.12;99922.25;1751452;79;21000;-82
2022/03/16 01:40:46;;;;;;;52.53;24.23;;;;;;;2.05;54.60;99914.99;1751521;79;21014;-83
2022/03/16 01:43:13;;;;;;;56.53;21.27;;;;;;;2.06;54.73;99921.45;1736281;81;21079;-83
2022/03/16 01:45:48;;;;;;;60.55;25.62;;;;;;;2.08;54.41;99922.77;1745588;80;20995;-83
2022/03/16 01:48:17;;;;;;;56.48;24.10;;;;;;;2.08;53.77;99923.63;1750123;80;20959;-83
2022/03/16 01:50:46;;;;;;;64.82;24.30;;;;;;;2.08;53.87;99913.80;1751351;80;21057;-83
2022/03/16 01:53:13;;;;;;;63.00;26.00;;;;;;;2.08;53.86;99909.95;1747094;80;20968;-83
2022/03/16 01:55:40;;;;;;;66.55;28.87;;;;;;;2.08;54.48;99903.11;1751529;79;21031;-83
2022/03/16 01:58:10;;;;;;;67.22;28.98;;;;;;;2.07;54.25;99901.78;1748591;81;20990;-83
2022/03/16 02:00:38;;;;;;;58.75;25.45;;;;;;;2.02;51.84;99902.98;1750275;81;20955;-79
2022/03/16 02:03:07;;;;;;;67.35;29.40;;;;;;;1.88;52.17;99907.80;1726282;82;21010;-82
2022/03/16 02:05:35;;;;;;;60.95;26.42;;;;;;;1.78;53.64;99898.16;1749777;82;21039;-79
2022/03/16 02:08:04;;;;;;;72.15;29.32;;;;;;;1.73;53.16;99900.63;1729285;81;21012;-81
2022/03/16 02:10:35;;;;;;;62.83;24.57;;;;;;;1.65;52.81;99901.26;1748840;82;21022;-80
2022/03/16 02:13:02;;;;;;;62.78;28.35;;;;;;;1.56;54.47;99895.51;1746632;82;20982;-81
2022/03/16 02:15:28;;;;;;;67.58;28.12;;;;;;;1.51;53.86;99891.56;1742093;82;20975;-82
2022/03/16 02:17:55;;;;;;;68.25;27.62;;;;;;;1.48;53.01;99898.31;1738728;82;21035;-81
2022/03/16 02:20:23;;;;;;;72.12;31.82;;;;;;;1.47;53.12;99899.98;1748078;82;21116;-81
2022/03/16 02:22:59;;;;;;;67.82;26.07;;;;;;;1.39;53.26;99892.52;1748406;82;21007;-80
2022/03/16 02:25:27;;;;;;;73.70;28.67;;;;;;;1.35;54.00;99878.80;1733060;81;21067;-80
2022/03/16 02:27:55;;;;;;;67.42;27.40;;;;;;;1.33;53.24;99880.45;1728346;82;21007;-79
2022/03/16 02:30:23;;;;;;;73.90;29.72;;;;;;;1.31;53.29;99884.67;1743430;82;21037;-80
2022/03/16 02:32:50;;;;;;;59.40;26.60;;;;;;;1.32;53.01;99885.53;1732373;82;21009;-79
2022/03/16 02:35:17;;;;;;;67.32;28.98;;;;;;;1.31;52.68;99884.67;1721335;81;21058;-81
2022/03/16 02:37:44;;;;;;;72.35;31.37;;;;;;;1.31;52.60;99878.27;1750246;82;21078;-81
2022/03/16 02:40:17;;;;;;;65.65;27.60;;;;;;;1.31;52.90;99883.39;1736663;82;20937;-82
2022/03/16 02:42:44;;;;;;;68.78;28.07;;;;;;;1.33;52.97;99875.33;1740063;82;20979;-82
2022/03/16 02:45:10;;;;;;;63.68;25.85;;;;;;;1.37;53.57;99864.72;1742701;82;21002;-80
2022/03/16 02:47:42;;;;;;;79.45;28.83;;;;;;;1.42;52.30;99855.45;1738068;82;20956;-81
2022/03/16 02:50:10;;;;;;;71.85;26.15;;;;;;;1.44;52.15;99847.81;1729066;82;21029;-79
2022/03/16 02:52:37;;;;;;;69.65;29.55;;;;;;;1.43;52.31;99837.09;1742095;82;20987;-82
2022/03/16 02:55:06;;;;;;;67.70;28.15;;;;;;;1.43;52.89;99833.25;1745081;82;21044;-81
2022/03/16 02:57:33;;;;;;;73.97;31.80;;;;;;;1.45;53.58;99834.16;1746577;82;21006;-82
2022/03/16 03:00:00;;;;;;;79.53;28.50;;;;;;;1.44;53.89;99837.14;1748221;82;20954;-80
2022/03/16 03:02:27;;;;;;;66.67;30.53;;;;;;;1.40;53.47;99835.34;1742814;82;21003;-80
2022/03/16 03:04:53;;;;;;;76.20;33.08;;;;;;;1.33;54.35;99813.84;1739555;82;20956;-80
2022/03/16 03:07:19;;;;;;;74.40;30.75;;;;;;;1.29;54.84;99817.13;1739348;82;20980;-79
2022/03/16 03:09:47;;;;;;;78.83;33.92;;;;;;;1.27;55.42;99824.34;1749036;82;21422;-80
2022/03/16 03:12:14;;;;;;;72.17;28.62;;;;;;;1.26;54.94;99813.23;1744933;82;21509;-84
2022/03/16 03:14:41;;;;;;;77.17;33.30;;;;;;;1.22;55.52;99807.59;1745386;82;21019;-82
2022/03/16 03:17:08;;;;;;;77.90;29.63;;;;;;;1.21;55.06;99812.24;1743967;82;21060;-83
2022/03/16 03:19:35;;;;;;;73.90;33.05;;;;;;;1.14;55.17;99807.83;1730041;82;21058;-79
2022/03/16 03:22:04;;;;;;;74.87;30.82;;;;;;;1.11;54.17;99812.86;1748619;82;20977;-82
2022/03/16 03:24:32;;;;;;;76.22;29.70;;;;;;;1.01;55.14;99814.31;1751064;82;21067;-83
2022/03/16 03:26:59;;;;;;;75.47;31.68;;;;;;;0.96;55.28;99814.22;1748184;82;21072;-82
2022/03/16 03:29:25;;;;;;;64.05;26.80;;;;;;;0.97;54.19;99816.36;1737985;82;20982;-81
2022/03/16 03:31:51;;;;;;;75.22;31.37;;;;;;;0.94;54.75;99808.61;1749425;82;21159;-82
2022/03/16 03:34:18;;;;;;;74.40;29.37;;;;;;;0.93;54.77;99805.16;1743036;82;20986;-82
2022/03/16 03:36:45;;;;;;;72.90;31.27;;;;;;;0.94;54.43;99799.23;1741362;82;21053;-82
2022/03/16 03:39:11;;;;;;;70.45;31.65;;;;;;;0.98;55.75;99800.18;1740887;82;21071;-83
2022/03/16 03:41:38;;;;;;;68.78;28.95;;;;;;;0.99;55.11;99794.21;1752977;82;20983;-83
2022/03/16 03:44:05;;;;;;;80.45;31.80;;;;;;;1.02;53.75;99788.33;1734194;82;20975;-83
2022/03/16 03:46:32;;;;;;;70.25;28.65;;;;;;;1.02;55.37;99777.66;1733615;82;21281;-83
2022/03/16 03:48:58;;;;;;;86.57;33.05;;;;;;;1.05;55.17;99782.84;1740281;82;21025;-81
2022/03/16 03:51:25;;;;;;;66.77;28.65;;;;;;;1.06;53.85;99783.73;1753124;82;20990;-83
2022/03/16 03:53:51;;;;;;;72.03;32.35;;;;;;;0.97;54.89;99786.91;1750500;82;21076;-82
2022/03/16 03:56:18;;;;;;;74.45;33.28;;;;;;;0.94;55.66;99791.55;1737236;82;20967;-81
2022/03/16 03:58:45;;;;;;;76.53;29.15;;;;;;;0.91;55.72;99785.06;1743373;82;21018;-83
2022/03/16 04:01:12;;;;;;;78.75;33.13;;;;;;;0.90;55.50;99778.22;1727160;82;20996;-83
2022/03/16 04:03:38;;;;;;;76.33;30.23;;;;;;;0.91;56.39;99769.70;1740402;82;21052;-82
2022/03/16 04:06:05;;;;;;;76.45;33.35;;;;;;;0.94;55.19;99769.78;1740074;82;21003;-82
2022/03/16 04:08:32;;;;;;;73.70;29.20;;;;;;;0.94;55.59;99770.20;1750789;82;20990;-82
2022/03/16 04:10:58;;;;;;;78.35;33.40;;;;;;;0.93;54.59;99768.04;1746170;82;21038;-81
2022/03/16 04:13:25;;;;;;;71.97;28.07;;;;;;;0.82;56.94;99768.20;1742924;82;21288;-82
2022/03/16 04:15:51;;;;;;;74.70;32.25;;;;;;;0.79;54.65;99761.30;1738886;81;21014;-83
2022/03/16 04:18:18;;;;;;;90.53;33.63;;;;;;;0.73;57.52;99762.42;1751817;81;20964;-81
2022/03/16 04:20:44;;;;;;;78.55;31.05;;;;;;;0.74;55.08;99755.64;1734616;81;21005;-81
2022/03/16 04:23:11;;;;;;;90.75;34.55;;;;;;;0.71;56.73;99757.69;1753321;81;20967;-81
2022/03/16 04:25:37;;;;;;;78.78;32.55;;;;;;;0.72;58.26;99756.02;1745156;81;20991;-81
2022/03/16 04:28:04;;;;;;;75.75;31.82;;;;;;;0.74;57.38;99747.96;1751363;82;20988;-81
2022/03/16 04:30:30;;;;;;;78.52;28.98;;;;;;;0.71;58.50;99748.73;1742764;81;21008;-82
2022/03/16 04:32:57;;;;;;;82.80;33.35;;;;;;;0.70;56.60;99753.41;1752469;82;21022;-81
2022/03/16 04:35:23;;;;;;;74.40;29.57;;;;;;;0.73;57.72;99756.45;1743701;81;21628;-81
2022/03/16 04:37:49;;;;;;;82.17;32.80;;;;;;;0.73;57.09;99755.17;1737205;82;21054;-82
2022/03/16 04:40:16;;;;;;;76.62;29.87;;;;;;;0.77;57.29;99747.59;1749757;82;21035;-81
2022/03/16 04:42:43;;;;;;;91.25;36.10;;;;;;;0.79;57.47;99754.90;1737557;82;20998;-82
2022/03/16 04:45:10;;;;;;;78.83;29.82;;;;;;;0.82;57.17;99751.57;1736164;82;20974;-81
2022/03/16 04:47:37;;;;;;;83.85;34.05;;;;;;;0.85;57.47;99751.63;1749708;82;21262;-82
2022/03/16 04:50:06;;;;;;;65.97;29.02;;;;;;;0.91;55.81;99749.22;1748202;82;20971;-79
2022/03/16 04:52:33;;;;;;;74.20;30.60;;;;;;;0.91;56.63;99744.52;1739255;82;21031;-78
2022/03/16 04:54:59;;;;;;;77.47;31.45;;;;;;;0.89;56.13;99745.75;1726862;82;21030;-80
2022/03/16 04:57:25;;;;;;;78.78;29.80;;;;;;;0.92;55.68;99746.27;1739462;82;21486;-80
2022/03/16 04:59:52;;;;;;;79.37;32.23;;;;;;;0.92;55.39;99749.69;1725570;82;21018;-80
2022/03/16 05:02:18;;;;;;;74.82;28.47;;;;;;;0.87;56.79;99755.09;1738402;82;21100;-80
2022/03/16 05:04:44;;;;;;;74.65;31.95;;;;;;;0.90;56.58;99765.84;1729302;82;21015;-81
2022/03/16 05:07:11;;;;;;;70.85;28.87;;;;;;;0.92;56.67;99771.45;1743633;82;20975;-80
2022/03/16 05:09:37;;;;;;;78.62;31.57;;;;;;;0.97;57.61;99764.72;1735101;82;20997;-79
2022/03/16 05:12:06;;;;;;;64.62;28.40;;;;;;;1.03;56.90;99764.43;1747368;82;20970;-81
2022/03/16 05:14:32;;;;;;;75.75;31.85;;;;;;;1.06;57.68;99772.20;1741485;82;21030;-80
2022/03/16 05:16:59;;;;;;;79.35;32.73;;;;;;;1.06;56.81;99773.48;1742450;82;21067;-81
2022/03/16 05:19:26;;;;;;;71.15;33.05;;;;;;;1.06;56.37;99772.20;1743916;82;21021;-80
2022/03/16 05:21:52;;;;;;;79.65;33.88;;;;;;;1.08;57.05;99766.70;1746022;82;21079;-82
2022/03/16 05:24:22;;;;;;;71.28;32.28;;;;;;;1.13;56.73;99763.81;1745986;82;21023;-82
2022/03/16 05:26:47;;;;;;;78.20;33.28;;;;;;;1.15;56.97;99760.88;1749023;81;20943;-82
2022/03/16 05:29:13;;;;;;;75.55;31.90;;;;;;;1.20;57.12;99764.42;1721055;83;20975;-82
2022/03/16 05:31:39;;;;;;;83.70;36.25;;;;;;;1.22;56.58;99769.16;1731511;83;21059;-83
2022/03/16 05:34:06;;;;;;;75.32;31.40;;;;;;;1.24;56.49;99755.13;1739111;82;20943;-82
2022/03/16 05:36:32;;;;;;;100.25;38.00;;;;;;;1.29;56.54;99758.63;1728718;83;21071;-82
2022/03/16 05:38:59;;;;;;;96.35;40.17;;;;;;;1.33;56.54;99763.00;1751477;82;21034;-81
2022/03/16 05:41:26;;;;;;;118.28;46.75;;;;;;;1.37;56.42;99768.25;1753471;82;20995;-82
2022/03/16 05:43:53;;;;;;;95.45;38.55;;;;;;;1.40;56.69;99766.16;1747371;82;21023;-82
2022/03/16 05:46:19;;;;;;;103.27;40.70;;;;;;;1.43;55.74;99772.62;1748583;82;21287;-82
2022/03/16 05:48:46;;;;;;;95.65;38.35;;;;;;;1.40;55.23;99768.72;1737273;82;21011;-81
2022/03/16 05:51:12;;;;;;;99.60;39.15;;;;;;;1.36;56.02;99769.06;1750815;82;20998;-82
2022/03/16 05:53:39;;;;;;;104.90;41.13;;;;;;;1.39;55.32;99773.38;1750003;82;21014;-82
2022/03/16 05:56:05;;;;;;;94.85;37.03;;;;;;;1.39;56.57;99772.09;1708846;82;21167;-82
2022/03/16 05:58:32;;;;;;;100.27;40.03;;;;;;;1.43;57.03;99780.73;1723208;82;21018;-82
2022/03/16 06:00:59;;;;;;;115.50;41.68;;;;;;;1.46;56.51;99785.94;1734379;80;20959;-83
2022/03/16 06:03:25;;;;;;;104.58;42.13;;;;;;;1.45;58.24;99807.25;1738984;82;21026;-83
2022/03/16 06:05:52;;;;;;;93.63;34.87;;;;;;;1.36;57.92;99786.14;1725295;82;21088;-82
2022/03/16 06:08:18;;;;;;;86.80;35.92;;;;;;;1.35;58.04;99798.48;1742659;82;21047;-83
2022/03/16 06:10:44;;;;;;;94.87;32.83;;;;;;;1.32;57.46;99798.43;1732544;82;20987;-83
2022/03/16 06:13:11;;;;;;;85.80;35.83;;;;;;;1.32;58.44;99813.80;1745557;82;21021;-82
2022/03/16 06:15:41;;;;;;;76.67;30.40;;;;;;;1.32;58.22;99805.69;1740146;82;20980;-83
2022/03/16 06:18:08;;;;;;;83.90;36.63;;;;;;;1.32;58.83;99801.84;1723914;83;21140;-82
2022/03/16 06:20:35;;;;;;;88.30;36.60;;;;;;;1.36;58.66;99807.49;1746741;82;20992;-82
2022/03/16 06:23:04;;;;;;;108.92;44.08;;;;;;;1.37;58.81;99808.35;1739963;79;20927;-83
2022/03/16 06:25:34;;;;;;;92.40;38.85;;;;;;;1.41;57.30;99808.02;1750516;81;21038;-84
2022/03/16 06:28:01;;;;;;;93.03;36.95;;;;;;;1.40;58.95;99807.16;1753719;80;21002;-84
2022/03/16 06:30:27;;;;;;;94.65;42.20;;;;;;;1.44;59.63;99818.34;1749351;82;21045;-82
2022/03/16 06:32:54;;;;;;;89.83;35.65;;;;;;;1.49;58.51;99807.77;1751725;81;21014;-84
2022/03/16 06:35:21;;;;;;;90.77;34.92;;;;;;;1.48;59.41;99799.65;1753916;81;21022;-83
2022/03/16 06:37:48;;;;;;;89.67;36.98;;;;;;;1.50;58.79;99796.70;1750018;82;20986;-83
2022/03/16 06:40:15;;;;;;;79.87;31.80;;;;;;;1.51;58.46;99809.56;1754461;80;21109;-83
2022/03/16 06:42:53;;;;;;;91.72;36.13;;;;;;;1.52;58.26;99802.73;1737136;82;21012;-83
2022/03/16 06:45:21;;;;;;;91.08;34.70;;;;;;;1.51;59.80;99803.55;1733860;82;21019;-84
2022/03/16 06:47:48;;;;;;;102.35;39.63;;;;;;;1.51;58.47;99804.44;1741701;82;20995;-82
2022/03/16 06:50:15;;;;;;;93.92;36.55;;;;;;;1.55;57.72;99813.03;1754622;80;21019;-84
2022/03/16 06:52:41;;;;;;;94.47;37.08;;;;;;;1.55;57.35;99805.34;1751515;80;20982;-84
2022/03/16 06:55:09;;;;;;;87.35;34.73;;;;;;;1.53;59.56;99796.36;1754025;80;20932;-83
2022/03/16 06:57:37;;;;;;;75.87;31.48;;;;;;;1.54;59.77;99789.53;1744062;82;20986;-83
2022/03/16 07:00:08;;;;;;;76.85;34.08;;;;;;;1.52;60.65;99789.91;1753484;79;20992;-83
2022/03/16 07:02:57;;;;;;;74.55;32.05;;;;;;;1.53;61.65;99795.47;1745619;80;21252;-85
2022/03/16 07:05:38;;;;;;;85.20;37.00;;;;;;;1.54;59.69;99788.25;1750018;79;21043;-84
2022/03/16 07:08:08;;;;;;;82.33;30.85;;;;;;;1.50;61.30;99777.06;1742705;78;21023;-81
2022/03/16 07:10:40;;;;;;;78.57;33.90;;;;;;;1.48;61.03;99779.14;1734785;79;21655;-80
2022/03/16 07:13:11;;;;;;;89.20;33.25;;;;;;;1.52;58.93;99778.38;1696939;81;21350;-82
2022/03/16 07:15:40;;;;;;;82.47;36.45;;;;;;;1.46;62.95;99768.86;1735759;81;21058;-83
2022/03/16 07:18:07;;;;;;;76.87;33.48;;;;;;;1.48;60.26;99767.19;1719507;81;21050;-80
2022/03/16 07:20:34;;;;;;;88.40;37.42;;;;;;;1.47;62.36;99764.16;1717964;82;21006;-81
2022/03/16 07:23:04;;;;;;;78.65;35.45;;;;;;;1.48;63.93;99762.07;1706110;80;21101;-80
2022/03/16 07:25:31;;;;;;;76.25;31.57;;;;;;;1.50;65.14;99761.69;1751249;79;21582;-82
2022/03/16 07:27:58;;;;;;;82.33;37.53;;;;;;;1.52;65.53;99756.60;1698466;80;20982;-81
2022/03/16 07:30:25;;;;;;;87.57;35.78;;;;;;;1.57;65.87;99751.14;1687092;83;21017;-81
2022/03/16 07:32:51;;;;;;;86.17;37.15;;;;;;;1.63;63.02;99759.38;1704500;83;21059;-81
2022/03/16 07:35:18;;;;;;;85.90;40.00;;;;;;;1.65;64.33;99754.77;1715504;81;21024;-81
2022/03/16 07:37:46;;;;;;;80.75;34.25;;;;;;;1.65;66.21;99759.00;1691793;84;21084;-82
2022/03/16 07:40:13;;;;;;;141.13;61.77;;;;;;;1.63;67.90;99751.27;1671766;80;21007;-79
2022/03/16 07:42:44;;;;;;;106.00;42.65;;;;;;;1.67;62.45;99748.36;1675405;84;21001;-83
2022/03/16 07:45:11;;;;;;;99.55;41.88;;;;;;;1.66;64.22;99747.93;1695587;84;20996;-83
2022/03/16 07:47:38;;;;;;;96.78;39.00;;;;;;;1.69;65.32;99745.41;1695124;78;21225;-84
2022/03/16 07:50:06;;;;;;;116.97;47.08;;;;;;;1.68;65.37;99743.70;1675118;85;21022;-82
2022/03/16 07:52:33;;;;;;;103.95;40.75;;;;;;;1.66;66.24;99747.50;1699362;83;21024;-82
2022/03/16 07:57:57;;;;;;;90.92;37.17;;;;;;;1.63;64.43;99741.44;1694911;80;21165;-81
2022/03/16 08:00:26;;;;;;;101.87;39.58;;;;;;;1.60;69.71;99739.69;1698737;80;21378;-82
2022/03/16 08:02:53;;;;;;;81.17;35.52;;;;;;;1.62;69.09;99741.87;1684572;84;21103;-81
2022/03/16 08:05:24;;;;;;;99.58;41.30;;;;;;;1.67;68.11;99739.00;1680787;84;21030;-81
2022/03/16 08:07:50;;;;;;;89.92;39.08;;;;;;;1.72;66.11;99733.53;1702264;84;20952;-82
2022/03/16 08:10:17;;;;;;;95.28;39.75;;;;;;;1.75;65.59;99741.69;1718672;81;21093;-80
2022/03/16 08:12:44;;;;;;;102.67;40.35;;;;;;;1.72;68.36;99736.52;1752262;81;21015;-80
2022/03/16 08:15:10;;;;;;;104.55;41.73;;;;;;;1.73;69.72;99733.11;1756942;81;21033;-79
2022/03/16 08:17:37;;;;;;;102.25;44.93;;;;;;;1.82;66.97;99735.02;1760508;81;21640;-79
2022/03/16 08:20:05;;;;;;;99.95;43.95;;;;;;;1.82;65.81;99731.17;1757002;80;21074;-80
2022/03/16 08:22:34;;;;;;;101.62;44.98;;;;;;;1.86;65.66;99730.39;1758726;81;21006;-79
2022/03/16 08:25:08;;;;;;;105.70;39.10;;;;;;;1.85;70.10;99725.69;1755350;81;21082;-79
2022/03/16 08:27:37;;;;;;;116.05;44.23;;;;;;;1.87;67.88;99725.30;1751923;80;21089;-78
2022/03/16 08:30:06;;;;;;;101.27;43.45;;;;;;;1.92;66.55;99730.52;1765868;80;21032;-82
2022/03/16 08:32:33;;;;;;;81.92;38.80;;;;;;;1.92;70.48;99726.67;1761780;80;21002;-84
2022/03/16 08:35:00;;;;;;;95.65;41.88;;;;;;;1.96;66.47;99734.44;1762277;81;21066;-85
2022/03/16 08:40:15;;;;;;;109.05;48.17;;;;;;;1.98;71.26;99730.62;1700852;83;21359;-81
2022/03/16 08:42:40;;;;;;;109.70;49.10;;;;;;;2.09;70.92;99726.59;1700335;83;21028;-83
2022/03/16 08:45:07;;;;;;;96.28;43.23;;;;;;;2.16;72.92;99724.99;1702999;83;21068;-82
2022/03/16 08:47:34;;;;;;;93.92;40.52;;;;;;;2.23;72.58;99722.11;1700510;83;21027;-84
2022/03/16 08:50:01;;;;;;;90.97;40.20;;;;;;;2.27;73.02;99718.77;1709246;83;20946;-81
2022/03/16 08:52:27;;;;;;;96.45;38.13;;;;;;;2.31;73.67;99724.00;1698257;84;21032;-82
2022/03/16 08:54:54;;;;;;;83.25;36.63;;;;;;;2.37;70.27;99727.10;1719703;78;21047;-82
2022/03/16 08:57:22;;;;;;;77.05;34.80;;;;;;;2.40;70.60;99724.57;1769730;80;21156;-80
2022/03/16 08:59:50;;;;;;;83.33;35.25;;;;;;;2.44;69.15;99720.37;1734335;81;21110;-81
2022/03/16 09:02:17;;;;;;;79.35;37.98;;;;;;;2.43;70.97;99728.48;1752332;79;21038;-81
2022/03/16 09:04:43;;;;;;;84.67;40.08;;;;;;;2.46;72.71;99729.81;1717862;80;20997;-81
2022/03/16 09:07:10;;;;;;;85.22;39.42;;;;;;;2.51;68.92;99735.91;1752558;80;21074;-82
2022/03/16 09:09:36;;;;;;;87.05;40.05;;;;;;;2.46;71.98;99728.95;1719288;82;21061;-82
2022/03/16 09:12:04;;;;;;;80.50;34.65;;;;;;;2.48;71.85;99729.84;1755047;80;21006;-82
2022/03/16 09:14:30;;;;;;;78.40;36.03;;;;;;;2.51;71.32;99732.05;1737221;81;21023;-82
2022/03/16 09:16:57;;;;;;;83.90;36.73;;;;;;;2.44;73.21;99718.66;1759784;80;21014;-81
2022/03/16 09:19:23;;;;;;;70.05;32.05;;;;;;;2.39;74.96;99720.30;1734200;81;21030;-80
2022/03/16 09:21:51;;;;;;;76.55;33.13;;;;;;;2.36;75.31;99716.38;1734475;81;21161;-80
2022/03/16 09:24:19;;;;;;;79.65;32.00;;;;;;;2.35;75.94;99717.23;1736559;81;21037;-81
2022/03/16 09:26:45;;;;;;;80.72;34.15;;;;;;;2.36;77.40;99713.81;1756213;80;21043;-81
2022/03/16 09:29:13;;;;;;;77.87;32.53;;;;;;;2.35;76.40;99707.82;1735803;81;21031;-80
2022/03/16 09:31:42;;;;;;;74.90;34.05;;;;;;;2.40;76.97;99709.17;1740521;81;21040;-82
2022/03/16 09:34:09;;;;;;;81.72;35.33;;;;;;;2.48;75.73;99713.16;1735830;81;21077;-82
2022/03/16 09:36:42;;;;;;;81.00;35.08;;;;;;;2.58;73.97;99697.93;1746150;79;21061;-82
2022/03/16 09:39:09;;;;;;;82.08;36.30;;;;;;;2.67;74.29;99692.11;1731125;81;21018;-79
2022/03/16 09:41:36;;;;;;;70.90;33.45;;;;;;;2.75;74.86;99678.11;1734849;81;21022;-82
2022/03/16 09:44:05;;;;;;;74.90;35.20;;;;;;;2.79;73.59;99675.61;1733743;81;20983;-82
2022/03/16 09:46:34;;;;;;;70.80;32.75;;;;;;;2.84;74.62;99660.25;1732562;81;21025;-80
2022/03/16 09:49:04;;;;;;;69.12;32.50;;;;;;;2.87;76.50;99670.59;1733131;81;21118;-80
2022/03/16 09:51:35;;;;;;;74.40;33.08;;;;;;;2.84;77.78;99676.09;1729383;81;21039;-81
2022/03/16 09:54:00;;;;;;;76.55;33.25;;;;;;;2.87;74.42;99674.44;1735730;81;20995;-81
2022/03/16 09:56:26;;;;;;;71.62;32.65;;;;;;;2.83;76.16;99671.39;1730054;81;21039;-81
2022/03/16 09:58:53;;;;;;;70.67;33.23;;;;;;;2.84;74.17;99674.38;1728124;81;21004;-80
2022/03/16 10:01:20;;;;;;;58.68;26.62;;;;;;;2.80;76.29;99682.88;1738185;81;21034;-82
2022/03/16 10:03:51;;;;;;;62.17;27.22;;;;;;;2.76;79.54;99680.67;1732872;81;21038;-81
2022/03/16 10:06:23;;;;;;;57.67;27.22;;;;;;;2.83;74.88;99682.09;1729101;81;21066;-77
2022/03/16 10:13:13;;;;;;;58.28;26.25;;;;;;;2.83;78.38;99674.38;1707586;81;21118;-78
2022/03/16 10:14:11;;;;;;;59.77;27.42;;;;;;;2.85;80.08;99667.56;1730934;81;20979;-79
2022/03/16 10:19:27;;;;;;;70.32;28.50;;;;;;;3.07;79.07;99661.89;1712131;79;21129;-83
2022/03/16 10:22:02;;;;;;;70.32;30.40;;;;;;;3.09;79.33;99645.22;1721467;82;21058;-84
2022/03/16 10:24:29;;;;;;;73.83;33.08;;;;;;;3.16;80.38;99641.48;1737396;81;21079;-83
2022/03/16 10:26:59;;;;;;;72.17;33.30;;;;;;;3.27;77.39;99638.19;1723879;81;21010;-82
2022/03/16 10:29:31;;;;;;;75.37;31.52;;;;;;;3.34;79.13;99630.58;1727691;82;21031;-82
2022/03/16 10:32:04;;;;;;;67.70;31.25;;;;;;;3.48;78.08;99620.47;1724520;81;21017;-83
2022/03/16 10:34:31;;;;;;;68.97;30.12;;;;;;;3.60;78.27;99617.14;1723096;82;21034;-83
2022/03/16 10:36:59;;;;;;;69.40;34.27;;;;;;;3.73;79.07;99608.73;1723373;81;20938;-83
2022/03/16 10:39:36;;;;;;;78.50;36.63;;;;;;;3.86;76.43;99603.70;1728107;82;21021;-80
2022/03/16 10:48:22;;;;;;;60.88;29.65;;;;;;;4.09;75.20;99578.21;1728944;82;21018;-79
2022/03/16 10:50:58;;;;;;;64.45;30.75;;;;;;;4.18;74.04;99591.17;1727452;82;21038;-82
2022/03/16 10:53:29;;;;;;;59.38;28.17;;;;;;;4.14;74.06;99589.42;1727147;81;20969;-79
2022/03/16 10:55:55;;;;;;;64.42;28.65;;;;;;;4.12;76.47;99602.70;1717826;82;21044;-81
2022/03/16 10:58:24;;;;;;;63.65;28.47;;;;;;;4.11;79.41;99607.39;1725984;82;21541;-80
2022/03/16 11:00:52;;;;;;;70.05;30.12;;;;;;;4.06;79.80;99594.49;1718358;82;21610;-79
2022/03/16 11:03:23;;;;;;;66.45;29.20;;;;;;;4.12;76.32;99591.97;1723912;82;21011;-80
2022/03/16 11:05:50;;;;;;;59.95;27.22;;;;;;;4.18;79.71;99589.45;1718098;82;21065;-79
2022/03/16 11:08:17;;;;;;;67.92;29.90;;;;;;;4.24;78.28;99591.62;1711899;82;21055;-81
2022/03/16 11:10:45;;;;;;;65.35;26.77;;;;;;;4.32;79.42;99588.28;1718654;82;21020;-80
2022/03/16 11:13:32;;;;;;;60.48;27.73;;;;;;;4.37;79.92;99588.30;1725475;82;20979;-80
2022/03/16 11:16:00;;;;;;;70.40;30.62;;;;;;;4.44;77.21;99587.95;1717594;82;21075;-82
2022/03/16 11:18:27;;;;;;;59.70;29.48;;;;;;;4.45;77.73;99582.78;1724745;82;22122;-80
2022/03/16 11:21:02;;;;;;;61.60;31.15;;;;;;;4.46;77.10;99578.52;1724356;82;21094;-81
2022/03/16 11:26:53;;;;;;;62.27;29.70;;;;;;;4.49;78.59;99582.39;1720338;82;20984;-80
2022/03/16 11:30:07;;;;;;;61.80;28.75;;;;;;;4.50;78.41;99571.25;1725169;82;21059;-77
2022/03/16 11:32:40;;;;;;;59.70;28.62;;;;;;;4.50;76.07;99570.82;1720404;82;21046;-81
2022/03/16 11:35:14;;;;;;;66.67;30.92;;;;;;;4.43;76.36;99571.61;1724417;82;21062;-82
2022/03/16 11:37:49;;;;;;;65.78;31.40;;;;;;;4.39;77.58;99568.15;1717594;82;21110;-83
2022/03/16 11:40:22;;;;;;;65.92;31.62;;;;;;;4.40;77.79;99570.32;1719698;82;21005;-80
2022/03/16 11:43:15;;;;;;;63.35;30.72;;;;;;;4.37;76.61;99562.56;1734527;81;21014;-81
2022/03/16 11:45:54;;;;;;;61.00;29.65;;;;;;;4.36;77.54;99562.14;1735827;81;21109;-80
2022/03/16 11:48:36;;;;;;;65.70;32.95;;;;;;;4.34;79.02;99565.98;1735264;81;21633;-79